Terminal Aerodrome Forecast
Issued by NWS Lubbock, TX

Home | Current Version | Previous Version | Text Only | Print | Product List | Glossary On
Versions: 1 2 3 4 5 6 7 8 9 10 11 12 13 14 15 16 17 18 19 20 21 22 23 24 25 26 27 28 29 30 31 32 33 34 35 36
000
FTUS44 KLUB 220700 RRA
TAFLBB
TAF
KLBB 220732Z 2208/2306 06008KT P6SM OVC050
     FM221100 09008KT P6SM OVC015
      TEMPO 2211/2215 OVC007
     FM221900 13007KT P6SM OVC050
     FM222100 12007KT P6SM OVC100
     FM230500 15006KT P6SM OVC200=

USA.gov is the U.S. government's official web portal to all federal, state and local government web resources and services.